Time;durP1;ratioP1;P1;durP2;ratioP2;P2;SDS_P1;SDS_P2;PMS_P1;PMS_P2;Temp;Humidity;BMP_temperature;BMP_pressure;BME280_temperature;BME280_humidity;BME280_pressure;Samples;Min_cycle;Max_cycle;Signal;HPM_P1;HPM_P2
2021/04/19 00:00:11;;;;;;;200.85;91.45;;;;;;;4.41;80.71;101009.30;1738319;82;21152;-74
2021/04/19 00:02:41;;;;;;;206.23;95.25;;;;;;;4.34;80.72;100993.55;1719510;83;21220;-74
2021/04/19 00:05:09;;;;;;;216.68;96.08;;;;;;;4.30;80.77;101000.02;1719753;83;21140;-74
2021/04/19 00:07:36;;;;;;;211.00;97.08;;;;;;;4.31;80.78;100996.44;1719631;83;21211;-74
2021/04/19 00:10:05;;;;;;;194.95;93.30;;;;;;;4.29;80.79;100994.88;1719418;83;21195;-74
2021/04/19 00:12:32;;;;;;;181.65;87.40;;;;;;;4.26;80.80;100995.92;1719445;82;21175;-74
2021/04/19 00:14:58;;;;;;;166.65;81.25;;;;;;;4.26;80.83;100997.23;1719868;83;21628;-74
2021/04/19 00:17:24;;;;;;;159.52;79.65;;;;;;;4.24;80.85;100996.53;1719697;83;21191;-75
2021/04/19 00:19:50;;;;;;;169.35;79.00;;;;;;;4.17;80.85;101000.58;1719956;82;21192;-74
2021/04/19 00:22:17;;;;;;;158.27;81.35;;;;;;;4.10;80.86;101003.79;1732260;82;21124;-75
2021/04/19 00:24:43;;;;;;;168.97;84.47;;;;;;;4.11;80.90;100995.77;1749824;82;21592;-74
2021/04/19 00:27:10;;;;;;;183.72;88.80;;;;;;;4.13;80.93;101000.44;1749974;82;21633;-75
2021/04/19 00:29:36;;;;;;;210.65;98.55;;;;;;;4.17;80.94;100990.02;1749712;81;21208;-75
2021/04/19 00:32:03;;;;;;;238.70;113.88;;;;;;;4.13;80.94;100991.67;1749915;82;21743;-75
2021/04/19 00:34:29;;;;;;;207.18;96.78;;;;;;;4.09;80.96;100995.02;1749758;82;21133;-75
2021/04/19 00:36:56;;;;;;;200.00;94.75;;;;;;;4.12;81.00;100992.15;1749959;82;21160;-75
2021/04/19 00:39:22;;;;;;;192.98;95.30;;;;;;;4.15;80.99;100993.74;1749113;82;21256;-75
2021/04/19 00:41:50;;;;;;;239.53;111.45;;;;;;;4.15;81.01;100996.38;1749587;82;21704;-75
2021/04/19 00:44:18;;;;;;;248.32;117.62;;;;;;;4.14;81.04;100994.69;1749424;82;21165;-75
2021/04/19 00:46:47;;;;;;;266.42;120.72;;;;;;;4.18;81.06;100991.72;1749802;82;21168;-75
2021/04/19 00:49:15;;;;;;;249.20;118.37;;;;;;;4.21;81.09;100986.20;1749977;82;21129;-75
2021/04/19 00:51:42;;;;;;;218.05;105.30;;;;;;;4.29;81.08;100985.63;1749846;82;21198;-75
2021/04/19 00:54:09;;;;;;;202.35;102.25;;;;;;;4.33;81.07;100989.70;1749016;82;21612;-75
2021/04/19 00:56:36;;;;;;;196.70;97.62;;;;;;;4.31;81.06;100996.91;1749763;81;21184;-75
2021/04/19 00:59:02;;;;;;;178.95;94.92;;;;;;;4.27;81.07;100994.97;1724109;82;21727;-75
2021/04/19 01:01:31;;;;;;;193.13;96.50;;;;;;;4.32;81.10;100994.16;1721172;82;21573;-75
2021/04/19 01:03:57;;;;;;;220.17;103.22;;;;;;;4.40;81.09;100993.08;1720102;83;21210;-75
2021/04/19 01:06:23;;;;;;;219.53;106.75;;;;;;;4.42;81.11;100985.91;1720045;83;21167;-75
2021/04/19 01:08:50;;;;;;;234.62;113.32;;;;;;;4.43;81.11;100980.97;1719892;83;21156;-75
2021/04/19 01:11:16;;;;;;;232.83;110.68;;;;;;;4.45;81.16;100976.43;1720062;83;21188;-75
2021/04/19 01:13:42;;;;;;;223.07;107.55;;;;;;;4.49;81.17;100979.20;1719571;83;21164;-75
2021/04/19 01:16:09;;;;;;;221.10;104.67;;;;;;;4.51;81.13;100990.48;1719886;83;21239;-75
2021/04/19 01:18:35;;;;;;;212.12;105.63;;;;;;;4.48;81.15;100994.67;1719887;83;21160;-75
2021/04/19 01:21:01;;;;;;;204.70;103.35;;;;;;;4.50;81.20;100990.61;1720258;82;21191;-75
2021/04/19 01:23:28;;;;;;;201.98;105.07;;;;;;;4.58;81.24;100988.20;1719997;83;21579;-75
2021/04/19 01:25:55;;;;;;;204.07;104.30;;;;;;;4.65;81.26;100981.97;1720094;83;21565;-75
2021/04/19 01:28:21;;;;;;;201.12;103.17;;;;;;;4.73;81.29;100987.52;1720466;82;22103;-75
2021/04/19 01:30:50;;;;;;;189.28;102.10;;;;;;;4.80;81.32;100990.05;1728967;82;21155;-75
2021/04/19 01:33:17;;;;;;;198.07;103.47;;;;;;;4.83;81.35;100988.48;1749800;82;21141;-75
2021/04/19 01:35:44;;;;;;;191.73;102.40;;;;;;;4.88;81.41;100988.98;1747661;82;21662;-75
2021/04/19 01:38:11;;;;;;;197.95;105.12;;;;;;;4.94;81.41;100984.53;1749426;82;21192;-75
2021/04/19 01:40:38;;;;;;;187.07;103.15;;;;;;;4.98;81.43;100984.66;1749384;81;21211;-74
2021/04/19 01:43:05;;;;;;;191.65;104.10;;;;;;;5.03;81.47;100985.16;1709189;82;21633;-75
2021/04/19 01:45:31;;;;;;;189.15;100.12;;;;;;;5.09;81.47;100980.70;1730735;82;21212;-75
2021/04/19 01:47:57;;;;;;;185.15;101.05;;;;;;;5.15;81.47;100983.33;1730466;82;21121;-75
2021/04/19 01:50:27;;;;;;;195.68;102.20;;;;;;;5.18;81.48;100975.99;1730647;82;21617;-75
2021/04/19 01:52:55;;;;;;;197.75;104.43;;;;;;;5.20;81.52;100984.66;1730650;81;21621;-75
2021/04/19 01:55:24;;;;;;;205.22;104.45;;;;;;;5.23;81.53;100980.45;1730552;82;21744;-75
2021/04/19 01:57:55;;;;;;;195.68;101.33;;;;;;;5.25;81.54;100982.48;1730524;82;21199;-75
2021/04/19 02:00:24;;;;;;;209.55;106.78;;;;;;;5.30;81.58;100984.29;1716218;82;21219;-75
2021/04/19 02:03:08;;;;;;;213.25;104.38;;;;;;;5.32;81.57;100978.86;1701431;84;21628;-74
2021/04/19 02:06:16;;;;;;;199.12;102.25;;;;;;;5.29;81.62;100977.31;1670027;84;21318;-74
2021/04/19 02:09:17;;;;;;;213.05;107.35;;;;;;;5.27;81.64;100976.61;1700440;84;21640;-75
2021/04/19 02:11:53;;;;;;;199.93;103.65;;;;;;;5.28;81.63;100979.59;1684392;84;21246;-75
2021/04/19 02:14:40;;;;;;;194.97;101.62;;;;;;;5.34;81.67;100972.52;1696458;84;21163;-75
2021/04/19 02:17:27;;;;;;;207.20;102.02;;;;;;;5.38;81.68;100981.05;1700799;84;21195;-75
2021/04/19 02:20:17;;;;;;;208.13;105.32;;;;;;;5.36;81.70;100979.83;1701313;84;21216;-74
2021/04/19 02:22:46;;;;;;;223.32;109.03;;;;;;;5.42;81.71;100975.84;1701663;82;21189;-75
2021/04/19 02:25:27;;;;;;;239.48;111.17;;;;;;;5.46;81.72;100964.90;1669940;84;21227;-75
2021/04/19 02:27:58;;;;;;;244.37;111.52;;;;;;;5.48;81.75;100968.28;1701263;84;21627;-75
2021/04/19 02:30:34;;;;;;;240.92;113.25;;;;;;;5.47;81.78;100965.75;1700803;84;21168;-75
2021/04/19 02:33:01;;;;;;;244.97;111.05;;;;;;;5.47;81.80;100962.63;1701317;84;22079;-75
2021/04/19 02:35:30;;;;;;;306.55;124.80;;;;;;;5.47;81.83;100961.78;1701128;83;21160;-75
2021/04/19 02:37:57;;;;;;;294.23;120.15;;;;;;;5.48;81.85;100960.34;1681034;84;21220;-74
2021/04/19 02:40:23;;;;;;;258.07;117.37;;;;;;;5.49;81.86;100956.71;1701951;82;21203;-75
2021/04/19 02:42:51;;;;;;;260.65;114.52;;;;;;;5.49;81.88;100959.36;1700947;83;21338;-75
2021/04/19 02:45:20;;;;;;;275.55;115.03;;;;;;;5.53;81.89;100958.16;1701361;84;21202;-74
2021/04/19 02:47:47;;;;;;;219.80;104.20;;;;;;;5.59;81.90;100962.60;1681134;84;21415;-75
2021/04/19 02:50:16;;;;;;;231.53;106.47;;;;;;;5.58;81.91;100954.30;1681342;84;21151;-74
2021/04/19 02:52:43;;;;;;;211.75;103.32;;;;;;;5.56;81.93;100950.95;1701272;82;21624;-74
2021/04/19 02:55:11;;;;;;;192.50;97.53;;;;;;;5.56;81.93;100941.69;1701482;82;21176;-74
2021/04/19 02:57:53;;;;;;;211.10;98.92;;;;;;;5.58;81.95;100951.66;1700598;83;21224;-74
2021/04/19 03:00:29;;;;;;;219.32;99.72;;;;;;;5.61;81.94;100944.78;1714478;82;21822;-75
2021/04/19 03:02:56;;;;;;;242.68;107.70;;;;;;;5.63;82.00;100938.91;1730626;82;21187;-74
2021/04/19 03:05:22;;;;;;;251.42;107.12;;;;;;;5.69;82.01;100941.89;1730415;82;21179;-75
2021/04/19 03:08:00;;;;;;;227.25;98.67;;;;;;;5.73;82.04;100939.83;1730716;82;21201;-75
2021/04/19 03:10:30;;;;;;;81.45;45.48;;;;;;;5.72;82.06;100928.87;1705046;82;21156;-74
2021/04/19 03:12:56;;;;;;;76.70;45.92;;;;;;;5.67;82.06;100932.37;1701386;84;21216;-75
2021/04/19 03:15:26;;;;;;;100.45;53.68;;;;;;;5.66;82.10;100936.84;1701197;83;21220;-74
2021/04/19 03:17:55;;;;;;;159.78;73.87;;;;;;;5.67;82.11;100940.31;1701341;84;21163;-75
2021/04/19 03:20:24;;;;;;;120.92;61.45;;;;;;;5.66;82.16;100945.27;1681927;84;21220;-75
2021/04/19 03:22:50;;;;;;;175.68;71.28;;;;;;;5.64;82.16;100937.92;1729759;82;21316;-75
2021/04/19 03:25:17;;;;;;;182.30;71.33;;;;;;;5.63;82.22;100936.26;1730515;82;21181;-75
2021/04/19 03:27:45;;;;;;;157.67;70.12;;;;;;;5.63;82.24;100929.64;1730343;82;21160;-75
2021/04/19 03:30:13;;;;;;;105.10;57.95;;;;;;;5.63;82.25;100922.52;1730564;82;21184;-75
2021/04/19 03:32:48;;;;;;;97.10;55.85;;;;;;;5.57;82.26;100928.32;1730634;82;21144;-75
2021/04/19 03:35:19;;;;;;;93.20;56.68;;;;;;;5.52;82.27;100930.01;1729145;82;22008;-76
2021/04/19 03:37:46;;;;;;;87.20;46.98;;;;;;;5.57;82.29;100933.61;1729835;82;21221;-75
2021/04/19 03:40:22;;;;;;;90.45;47.15;;;;;;;5.61;82.30;100932.88;1709448;82;21637;-75
2021/04/19 03:42:52;;;;;;;78.47;46.10;;;;;;;5.56;82.27;100927.14;1706978;82;21164;-75
2021/04/19 03:45:18;;;;;;;91.82;49.80;;;;;;;5.48;82.29;100931.25;1701235;84;21157;-75
2021/04/19 03:47:45;;;;;;;95.87;54.65;;;;;;;5.46;82.29;100923.91;1701145;84;21223;-74
2021/04/19 03:50:11;;;;;;;105.80;60.03;;;;;;;5.46;82.34;100924.38;1701223;84;21152;-75
2021/04/19 03:52:59;;;;;;;111.00;64.97;;;;;;;5.44;82.35;100929.81;1712959;82;21180;-75
2021/04/19 03:55:26;;;;;;;118.20;64.37;;;;;;;5.45;82.35;100939.41;1704254;84;21142;-75
2021/04/19 03:57:52;;;;;;;123.07;64.67;;;;;;;5.48;82.40;100936.54;1680778;84;21202;-75
2021/04/19 04:00:20;;;;;;;119.60;65.15;;;;;;;5.50;82.41;100937.24;1680451;84;21269;-76
2021/04/19 04:02:55;;;;;;;117.72;64.22;;;;;;;5.49;82.43;100928.94;1709293;83;21158;-75
2021/04/19 04:05:21;;;;;;;107.60;60.17;;;;;;;5.49;82.43;100930.73;1682281;84;21149;-74
2021/04/19 04:07:49;;;;;;;115.65;57.93;;;;;;;5.50;82.43;100927.98;1709311;84;21178;-75
2021/04/19 04:10:17;;;;;;;101.80;58.00;;;;;;;5.49;82.48;100916.19;1709121;84;21157;-75
2021/04/19 04:12:44;;;;;;;92.60;52.98;;;;;;;5.47;82.45;100908.40;1709319;84;22124;-75
2021/04/19 04:15:11;;;;;;;92.10;51.33;;;;;;;5.45;82.51;100911.63;1725331;81;21194;-74
2021/04/19 04:17:38;;;;;;;96.17;52.62;;;;;;;5.45;82.56;100911.63;1729984;82;21564;-75
2021/04/19 04:20:05;;;;;;;92.97;53.48;;;;;;;5.46;82.59;100912.00;1729886;82;21201;-75
2021/04/19 04:22:32;;;;;;;97.80;55.85;;;;;;;5.50;82.58;100912.11;1750399;81;21143;-75
2021/04/19 04:24:58;;;;;;;88.65;49.18;;;;;;;5.60;82.58;100907.38;1752410;81;21460;-75
2021/04/19 04:27:25;;;;;;;79.00;45.10;;;;;;;5.70;82.58;100909.66;1752477;81;21655;-74
2021/04/19 04:29:52;;;;;;;79.50;45.25;;;;;;;5.72;82.59;100895.80;1749780;81;21627;-75
2021/04/19 04:32:18;;;;;;;86.02;50.83;;;;;;;5.73;82.61;100886.91;1752617;81;21568;-75
2021/04/19 04:34:44;;;;;;;87.53;50.58;;;;;;;5.76;82.64;100881.36;1752381;81;21174;-74
2021/04/19 04:37:11;;;;;;;88.03;52.58;;;;;;;5.82;82.63;100874.22;1752581;81;21280;-75
2021/04/19 04:39:37;;;;;;;92.47;52.55;;;;;;;5.87;82.62;100866.78;1751925;81;21148;-74
2021/04/19 04:42:05;;;;;;;75.92;44.58;;;;;;;5.93;82.65;100865.78;1726061;81;21639;-75
2021/04/19 04:44:36;;;;;;;75.20;39.53;;;;;;;6.03;82.67;100854.77;1708354;83;21170;-75
2021/04/19 04:47:13;;;;;;;72.90;40.00;;;;;;;6.13;82.68;100853.50;1694022;84;21245;-75
2021/04/19 04:50:10;;;;;;;74.40;40.03;;;;;;;6.19;82.68;100851.67;1680098;85;21276;-75
2021/04/19 04:52:58;;;;;;;68.02;38.35;;;;;;;6.27;82.70;100857.13;1679757;85;21190;-75
2021/04/19 04:55:24;;;;;;;63.83;38.30;;;;;;;6.34;82.68;100860.94;1680408;85;21620;-75
2021/04/19 04:57:50;;;;;;;64.30;38.55;;;;;;;6.39;82.69;100852.12;1680443;85;21184;-75
2021/04/19 05:00:19;;;;;;;91.08;51.00;;;;;;;6.43;82.68;100853.54;1680292;85;21184;-75
2021/04/19 05:02:47;;;;;;;64.75;38.65;;;;;;;6.49;82.72;100855.66;1659233;83;21304;-75
2021/04/19 05:05:15;;;;;;;66.42;37.20;;;;;;;6.56;82.73;100853.78;1719554;83;21573;-75
2021/04/19 05:07:41;;;;;;;58.80;34.35;;;;;;;6.62;82.74;100852.77;1714132;83;21158;-75
2021/04/19 05:10:08;;;;;;;67.25;37.08;;;;;;;6.67;82.73;100847.08;1697981;83;21576;-75
2021/04/19 05:12:34;;;;;;;65.08;34.58;;;;;;;6.66;82.73;100848.04;1684877;83;21244;-75
2021/04/19 05:15:09;;;;;;;57.85;36.08;;;;;;;6.66;82.74;100853.34;1695560;84;21299;-75
2021/04/19 05:17:36;;;;;;;68.65;43.23;;;;;;;6.69;82.75;100855.72;1697954;84;21600;-75
2021/04/19 05:20:07;;;;;;;73.22;45.92;;;;;;;6.68;82.74;100856.23;1697750;83;21214;-75
2021/04/19 05:22:34;;;;;;;70.52;46.58;;;;;;;6.67;82.77;100861.17;1676006;83;21194;-75
2021/04/19 05:25:01;;;;;;;70.75;39.83;;;;;;;6.68;82.74;100858.88;1674548;85;21234;-75
2021/04/19 05:27:28;;;;;;;68.78;39.18;;;;;;;6.66;82.74;100855.98;1657037;85;21272;-75
2021/04/19 05:29:54;;;;;;;64.60;39.40;;;;;;;6.64;82.76;100857.47;1643495;85;21690;-75
2021/04/19 05:32:21;;;;;;;63.35;36.42;;;;;;;6.63;82.76;100852.28;1698415;84;21643;-75
2021/04/19 05:34:49;;;;;;;62.93;35.33;;;;;;;6.64;82.78;100857.95;1704490;84;21163;-74
2021/04/19 05:37:17;;;;;;;56.83;34.92;;;;;;;6.64;82.75;100851.32;1704622;84;21179;-75
2021/04/19 05:39:45;;;;;;;62.25;36.15;;;;;;;6.67;82.74;100853.22;1704252;82;21218;-75
2021/04/19 05:42:13;;;;;;;56.88;34.65;;;;;;;6.70;82.72;100854.75;1694790;84;21239;-74
2021/04/19 05:44:40;;;;;;;60.75;35.05;;;;;;;6.70;82.66;100847.64;1671027;85;21170;-75
2021/04/19 05:47:06;;;;;;;58.20;34.15;;;;;;;6.72;82.66;100844.88;1670913;85;21583;-75
2021/04/19 05:49:33;;;;;;;60.90;33.73;;;;;;;6.74;82.65;100845.56;1671041;85;21209;-77
2021/04/19 05:52:02;;;;;;;54.35;33.98;;;;;;;6.76;82.66;100855.53;1671018;85;21204;-75
2021/04/19 05:54:28;;;;;;;64.75;34.70;;;;;;;6.78;82.63;100849.63;1671130;84;21179;-75
2021/04/19 05:57:38;;;;;;;69.55;34.00;;;;;;;6.81;82.62;100842.73;1670766;85;21648;-76
2021/04/19 06:00:33;;;;;;;59.05;31.73;;;;;;;6.84;82.57;100846.43;1671162;85;21222;-76
2021/04/19 06:03:25;;;;;;;56.35;31.90;;;;;;;6.89;82.58;100844.23;1682274;84;21125;-75
2021/04/19 06:06:31;;;;;;;55.70;32.08;;;;;;;6.95;82.56;100844.52;1701319;83;22438;-76
2021/04/19 06:09:07;;;;;;;53.25;32.63;;;;;;;7.06;82.58;100843.56;1700338;84;21209;-76
2021/04/19 06:11:41;;;;;;;56.42;32.35;;;;;;;7.18;82.58;100839.80;1700983;84;21171;-76
2021/04/19 06:14:09;;;;;;;48.30;29.72;;;;;;;7.26;82.54;100837.31;1664315;84;21176;-76
2021/04/19 06:16:38;;;;;;;51.55;29.75;;;;;;;7.36;82.55;100846.11;1653938;86;21215;-76
2021/04/19 06:19:11;;;;;;;49.90;30.15;;;;;;;7.46;82.53;100849.61;1654261;86;21222;-75
2021/04/19 06:21:41;;;;;;;52.38;31.10;;;;;;;7.54;82.52;100851.09;1668636;85;21188;-75
2021/04/19 06:24:08;;;;;;;;;;;;;;;7.66;82.52;100863.74;1678122;85;21142;-75
2021/04/19 06:26:35;;;;;;;48.55;29.27;;;;;;;7.74;82.51;100871.01;1675468;85;20289;-76
2021/04/19 06:29:08;;;;;;;47.33;28.70;;;;;;;7.84;82.50;100867.86;1675872;85;21206;-75
2021/04/19 06:31:35;;;;;;;48.28;28.70;;;;;;;8.01;82.48;100871.97;1675482;85;21281;-75
2021/04/19 06:34:05;;;;;;;49.45;33.80;;;;;;;8.16;82.44;100867.05;1646748;85;21885;-75
2021/04/19 06:36:35;;;;;;;49.60;30.23;;;;;;;8.30;82.39;100863.13;1675849;85;26713;-76
2021/04/19 06:39:02;;;;;;;56.05;33.88;;;;;;;8.30;82.33;100863.94;1675466;85;21754;-75
2021/04/19 06:41:30;;;;;;;44.75;28.15;;;;;;;8.37;82.30;100867.70;1675807;85;21178;-76
2021/04/19 06:43:57;;;;;;;48.28;30.65;;;;;;;8.49;82.29;100865.23;1675674;85;21273;-76
2021/04/19 06:46:26;;;;;;;40.28;27.27;;;;;;;8.59;82.22;100872.32;1675776;85;21218;-76
2021/04/19 06:48:54;;;;;;;44.20;30.50;;;;;;;8.65;82.18;100870.43;1674643;85;21198;-76
2021/04/19 06:51:20;;;;;;;48.78;29.77;;;;;;;8.69;82.14;100873.15;1695504;84;21761;-76
2021/04/19 06:53:54;;;;;;;48.65;28.10;;;;;;;8.82;82.09;100865.66;1690649;84;21183;-76
2021/04/19 06:56:23;;;;;;;40.58;26.35;;;;;;;8.94;82.00;100861.80;1702270;84;21263;-76
2021/04/19 06:58:54;;;;;;;40.55;25.12;;;;;;;9.02;81.95;100866.74;1675002;84;21195;-76
2021/04/19 07:01:22;;;;;;;49.53;26.15;;;;;;;9.11;81.92;100877.00;1703226;84;21142;-76
2021/04/19 07:03:51;;;;;;;43.40;25.97;;;;;;;9.17;81.86;100873.73;1705636;84;21130;-76
2021/04/19 07:06:18;;;;;;;37.83;24.57;;;;;;;9.17;81.80;100877.73;1695267;84;21138;-76
2021/04/19 07:08:48;;;;;;;45.38;31.85;;;;;;;9.21;81.80;100876.94;1699519;84;21247;-76
2021/04/19 07:11:18;;;;;;;53.87;37.15;;;;;;;9.23;81.70;100869.14;1674068;83;21198;-76
2021/04/19 07:13:44;;;;;;;59.83;35.13;;;;;;;9.33;81.65;100875.72;1639676;87;21211;-76
2021/04/19 07:16:13;;;;;;;40.92;28.12;;;;;;;9.50;81.60;100877.08;1675788;84;21204;-76
2021/04/19 07:18:39;;;;;;;44.63;27.73;;;;;;;9.61;81.48;100872.50;1672549;84;21162;-77
2021/04/19 07:21:07;;;;;;;37.55;24.40;;;;;;;9.62;81.41;100874.19;1671732;84;21175;-76
2021/04/19 07:23:37;;;;;;;57.78;27.20;;;;;;;9.64;81.35;100878.89;1670017;85;21236;-76
2021/04/19 07:26:05;;;;;;;44.80;24.77;;;;;;;9.63;81.28;100881.20;1670987;85;21235;-76
2021/04/19 07:28:36;;;;;;;36.38;24.15;;;;;;;9.65;81.26;100884.53;1672063;84;21655;-76
2021/04/19 07:31:00;;;;;;;38.85;23.92;;;;;;;9.63;81.17;100889.19;1667193;85;21599;-76
2021/04/19 07:33:35;;;;;;;40.30;27.17;;;;;;;9.64;81.06;100885.02;1671161;85;21607;-76
2021/04/19 07:36:26;;;;;;;42.90;28.32;;;;;;;9.75;80.99;100888.80;1670391;85;21210;-75
2021/04/19 07:39:00;;;;;;;41.45;26.12;;;;;;;9.86;80.92;100882.40;1668323;84;21664;-76
2021/04/19 07:41:58;;;;;;;40.30;25.62;;;;;;;9.91;80.83;100886.30;1670503;84;21182;-76
2021/04/19 07:44:51;;;;;;;52.40;27.80;;;;;;;9.87;80.75;100886.25;1667364;84;21234;-74
2021/04/19 07:47:40;;;;;;;40.08;25.77;;;;;;;9.90;80.65;100886.44;1672482;84;21429;-74
2021/04/19 07:50:20;;;;;;;;;;;;;;;9.91;80.58;100882.79;1675465;84;21218;-75
2021/04/19 07:53:02;;;;;;;40.35;26.65;;;;;;;9.93;80.53;100878.97;1694293;83;20556;-74
2021/04/19 07:55:41;;;;;;;42.53;26.20;;;;;;;9.97;80.49;100884.34;1691623;83;21667;-74
2021/04/19 07:58:22;;;;;;;47.45;29.63;;;;;;;10.03;80.38;100877.54;1650835;85;21167;-74
2021/04/19 08:00:51;;;;;;;46.63;34.20;;;;;;;10.10;80.34;100877.27;1671026;84;21171;-75
2021/04/19 08:03:19;;;;;;;36.42;23.20;;;;;;;10.18;80.27;100880.03;1677578;84;21175;-75
2021/04/19 08:05:52;;;;;;;33.35;22.02;;;;;;;10.28;80.24;100878.09;1669736;84;21762;-75
2021/04/19 08:08:31;;;;;;;41.18;24.30;;;;;;;10.38;80.16;100880.66;1670106;85;21738;-75
2021/04/19 08:11:13;;;;;;;35.45;23.42;;;;;;;10.45;80.09;100871.03;1672900;84;21163;-75
2021/04/19 08:13:40;;;;;;;33.85;22.25;;;;;;;10.50;80.02;100869.59;1667568;84;22072;-75
2021/04/19 08:16:21;;;;;;;36.13;23.25;;;;;;;10.57;79.97;100866.28;1670302;85;21191;-74
2021/04/19 08:18:47;;;;;;;32.30;22.73;;;;;;;10.60;79.87;100868.63;1669687;85;21151;-75
2021/04/19 08:21:13;;;;;;;32.25;22.75;;;;;;;10.60;79.76;100865.46;1672007;84;21190;-75
2021/04/19 08:23:43;;;;;;;33.08;22.80;;;;;;;10.67;79.70;100863.00;1670728;84;21604;-75
2021/04/19 08:26:10;;;;;;;32.85;22.37;;;;;;;10.80;79.63;100858.08;1671402;84;26501;-75
2021/04/19 08:28:45;;;;;;;34.80;22.10;;;;;;;10.86;79.56;100861.43;1671693;84;21150;-75
2021/04/19 08:31:12;;;;;;;37.67;23.80;;;;;;;10.92;79.44;100854.95;1668292;84;21549;-74
2021/04/19 08:33:38;;;;;;;34.55;22.82;;;;;;;11.06;79.42;100857.50;1647159;85;21151;-75
2021/04/19 08:36:10;;;;;;;33.95;23.95;;;;;;;11.13;79.30;100857.68;1667829;84;21191;-75
2021/04/19 08:38:36;;;;;;;34.73;23.27;;;;;;;11.15;79.24;100852.54;1679249;84;21626;-75
2021/04/19 08:41:04;;;;;;;36.08;23.20;;;;;;;11.30;79.16;100849.55;1678547;84;21181;-75
2021/04/19 08:43:34;;;;;;;34.63;21.87;;;;;;;11.44;79.04;100856.92;1681730;84;21194;-75
2021/04/19 08:46:04;;;;;;;32.75;22.85;;;;;;;11.52;78.96;100852.95;1692124;82;21178;-72
2021/04/19 08:48:31;;;;;;;35.20;22.62;;;;;;;11.64;78.91;100851.29;1688247;84;21146;-73
2021/04/19 08:51:03;;;;;;;44.90;24.80;;;;;;;11.77;78.77;100848.98;1695808;83;22076;-75
2021/04/19 08:53:30;;;;;;;36.55;21.75;;;;;;;11.79;78.67;100848.30;1685480;83;21204;-75
2021/04/19 08:55:58;;;;;;;27.58;20.27;;;;;;;11.81;78.56;100842.31;1697438;83;21203;-75
2021/04/19 08:58:24;;;;;;;32.93;21.40;;;;;;;11.90;78.45;100847.98;1694173;83;21162;-75
2021/04/19 09:00:52;;;;;;;30.17;21.05;;;;;;;11.96;78.29;100835.30;1696385;83;21156;-75
2021/04/19 09:03:20;;;;;;;29.35;20.32;;;;;;;11.99;78.19;100838.97;1694059;83;21185;-75
2021/04/19 09:05:49;;;;;;;40.25;24.27;;;;;;;12.06;78.08;100836.45;1695070;84;21166;-75
2021/04/19 09:08:16;;;;;;;34.08;21.80;;;;;;;12.19;77.91;100836.27;1694859;84;21198;-75
2021/04/19 09:10:54;;;;;;;35.55;22.15;;;;;;;12.33;77.79;100835.57;1694551;83;21206;-75
2021/04/19 09:16:25;;;;;;;34.05;23.27;;;;;;;12.62;77.50;100829.64;1817062;77;27885;-74
2021/04/19 09:18:57;;;;;;;33.83;21.87;;;;;;;12.70;77.32;100828.78;1815424;78;21143;-75
2021/04/19 09:21:43;;;;;;;29.60;21.02;;;;;;;12.82;77.24;100834.08;1806005;78;21233;-75
2021/04/19 09:24:15;;;;;;;34.40;20.92;;;;;;;12.93;77.08;100827.00;1793705;78;21797;-75
2021/04/19 09:26:47;;;;;;;32.40;20.62;;;;;;;13.09;76.96;100825.59;1803367;78;21580;-75
2021/04/19 09:29:28;;;;;;;29.80;19.90;;;;;;;13.26;76.85;100827.70;1793976;80;21139;-75
2021/04/19 09:32:05;;;;;;;29.82;19.42;;;;;;;13.34;76.70;100828.47;1807665;78;21195;-75
2021/04/19 09:34:47;;;;;;;29.02;19.55;;;;;;;13.51;76.57;100821.98;1819437;78;21265;-76
2021/04/19 09:37:17;;;;;;;26.70;19.25;;;;;;;13.75;76.38;100818.81;1817897;78;21149;-76
2021/04/19 09:39:47;;;;;;;25.82;18.12;;;;;;;13.92;76.13;100817.66;1816391;78;21201;-76
2021/04/19 09:42:13;;;;;;;;;;;;;;;13.98;75.89;100823.63;1815073;78;21135;-75
2021/04/19 09:44:54;;;;;;;25.50;18.00;;;;;;;14.08;75.73;100815.31;1806198;77;20567;-76
2021/04/19 09:47:48;;;;;;;24.92;18.87;;;;;;;14.19;75.60;100810.34;1796167;78;21155;-75
2021/04/19 09:50:17;;;;;;;25.75;17.55;;;;;;;14.35;75.40;100815.59;1760085;80;21190;-75
2021/04/19 09:52:47;;;;;;;;;;;;;;;14.34;75.00;100813.91;1771384;80;21110;-75
2021/04/19 09:55:13;;;;;;;21.25;15.72;;;;;;;14.46;74.90;100812.42;1794019;80;20290;-76
2021/04/19 09:57:39;;;;;;;19.48;13.90;;;;;;;14.49;74.72;100809.36;1788118;79;22038;-75
2021/04/19 10:00:07;;;;;;;21.42;15.40;;;;;;;14.52;74.46;100808.19;1784349;80;21559;-75
2021/04/19 10:02:35;;;;;;;15.23;12.70;;;;;;;14.53;74.10;100810.36;1780842;80;21622;-75
2021/04/19 10:05:03;;;;;;;28.77;17.48;;;;;;;14.58;73.82;100810.63;1783991;80;21178;-75
2021/04/19 10:07:31;;;;;;;23.92;15.30;;;;;;;14.65;73.48;100811.55;1776820;80;21745;-76
2021/04/19 10:10:01;;;;;;;19.77;14.85;;;;;;;14.67;73.15;100802.28;1781964;80;21141;-75
2021/04/19 10:12:28;;;;;;;19.57;15.00;;;;;;;14.63;72.87;100802.86;1787723;80;21190;-74
2021/04/19 10:14:56;;;;;;;22.77;15.63;;;;;;;14.70;72.66;100791.70;1788636;79;21191;-74
2021/04/19 10:17:23;;;;;;;19.50;14.50;;;;;;;14.79;72.42;100796.77;1772408;79;21166;-74
2021/04/19 10:19:49;;;;;;;18.17;13.98;;;;;;;14.84;72.04;100793.02;1794462;79;21175;-75
2021/04/19 10:22:17;;;;;;;18.98;13.93;;;;;;;14.86;71.77;100792.31;1775821;79;21186;-75
2021/04/19 10:24:56;;;;;;;19.85;15.63;;;;;;;14.94;71.48;100791.38;1778158;79;21874;-75
2021/04/19 10:27:29;;;;;;;19.10;13.62;;;;;;;15.06;71.30;100785.82;1792797;79;21143;-75
2021/04/19 10:30:07;;;;;;;16.05;13.13;;;;;;;15.18;71.04;100794.23;1797177;79;21103;-75
2021/04/19 10:32:34;;;;;;;17.35;13.80;;;;;;;15.22;70.71;100785.60;1797273;78;21575;-75
2021/04/19 10:35:00;;;;;;;18.82;13.60;;;;;;;15.27;70.40;100769.72;1790661;79;21552;-75
2021/04/19 10:37:26;;;;;;;18.80;12.75;;;;;;;15.26;70.19;100772.11;1765848;81;22243;-75
2021/04/19 10:39:52;;;;;;;20.90;14.38;;;;;;;15.10;69.97;100774.19;1765691;81;21114;-75
2021/04/19 10:42:27;;;;;;;23.05;14.13;;;;;;;15.01;69.86;100770.80;1765900;81;21123;-75
2021/04/19 10:44:54;;;;;;;21.40;13.43;;;;;;;15.12;69.76;100770.30;1731847;82;21178;-75
2021/04/19 10:47:28;;;;;;;15.78;12.98;;;;;;;15.31;69.49;100769.66;1699520;83;21172;-75
2021/04/19 10:49:55;;;;;;;19.82;13.72;;;;;;;15.44;69.21;100768.98;1706174;84;21206;-75
2021/04/19 10:52:21;;;;;;;14.30;12.43;;;;;;;15.47;68.86;100771.28;1731663;82;21135;-75
2021/04/19 10:54:48;;;;;;;16.80;12.93;;;;;;;15.38;68.67;100769.22;1699537;83;21243;-75
2021/04/19 10:57:27;;;;;;;17.07;12.58;;;;;;;15.35;68.46;100762.05;1706024;84;21132;-75
2021/04/19 11:00:00;;;;;;;20.90;13.88;;;;;;;15.33;68.24;100767.64;1732224;81;21181;-75
2021/04/19 11:02:30;;;;;;;18.27;13.65;;;;;;;15.34;68.07;100745.09;1699893;84;22126;-75
2021/04/19 11:04:57;;;;;;;15.98;12.10;;;;;;;15.62;67.87;100765.87;1690743;84;21191;-75
2021/04/19 11:07:32;;;;;;;16.23;12.28;;;;;;;15.56;67.58;100748.64;1731929;82;21186;-75
2021/04/19 11:10:27;;;;;;;18.80;12.88;;;;;;;15.70;67.42;100749.58;1699683;84;21143;-75
2021/04/19 11:13:07;;;;;;;15.40;12.90;;;;;;;15.84;67.18;100750.00;1706012;84;21163;-76
2021/04/19 11:15:41;;;;;;;20.52;12.07;;;;;;;16.00;66.90;100747.03;1730098;82;21203;-76
2021/04/19 11:18:22;;;;;;;13.25;11.18;;;;;;;16.05;66.39;100743.22;1703179;83;21159;-76
2021/04/19 11:20:51;;;;;;;25.72;12.50;;;;;;;16.09;66.12;100740.97;1729086;81;21163;-76
2021/04/19 11:23:29;;;;;;;19.77;12.03;;;;;;;16.20;65.91;100738.56;1679083;85;21559;-76
2021/04/19 11:25:58;;;;;;;14.85;11.73;;;;;;;16.27;65.65;100735.39;1703279;84;21162;-75
2021/04/19 11:28:31;;;;;;;17.25;12.53;;;;;;;16.28;65.46;100733.03;1729326;83;21167;-75
2021/04/19 11:31:00;;;;;;;21.23;13.68;;;;;;;16.20;65.18;100738.56;1679203;85;21555;-73